createdAt,value
2022-10-23T00:01:39.619Z,39.42
2022-10-23T00:04:25.628Z,40.30
2022-10-23T00:06:53.290Z,31.95
2022-10-23T00:09:23.580Z,41.03
2022-10-23T00:11:52.547Z,36.55
2022-10-23T00:14:23.962Z,34.10
2022-10-23T00:16:52.251Z,36.80
2022-10-23T00:19:19.917Z,32.50
2022-10-23T00:21:47.667Z,28.77
2022-10-23T00:24:15.554Z,30.23
2022-10-23T00:26:43.526Z,32.88
2022-10-23T00:29:11.775Z,28.13
2022-10-23T00:31:39.946Z,31.23
2022-10-23T00:34:08.765Z,31.30
2022-10-23T00:36:37.580Z,28.58
2022-10-23T00:39:06.241Z,28.73
2022-10-23T00:41:34.703Z,29.67
2022-10-23T00:44:10.389Z,30.15
2022-10-23T00:46:39.519Z,31.05
2022-10-23T00:49:08.461Z,38.60
2022-10-23T00:51:43.657Z,38.03
2022-10-23T00:54:29.669Z,28.77
2022-10-23T00:57:01.487Z,31.17
2022-10-23T00:59:30.468Z,25.92
2022-10-23T01:01:58.994Z,26.13
2022-10-23T01:04:28.437Z,26.92
2022-10-23T01:07:18.593Z,28.10
2022-10-23T01:10:03.584Z,32.17
2022-10-23T01:12:44.928Z,28.52
2022-10-23T01:15:26.995Z,23.48
2022-10-23T01:18:13.085Z,24.45
2022-10-23T01:21:08.655Z,24.13
2022-10-23T01:24:01.966Z,39.97
2022-10-23T01:26:41.031Z,34.40
2022-10-23T01:29:31.686Z,33.30
2022-10-23T01:32:12.173Z,39.05
2022-10-23T01:39:48.259Z,32.67
2022-10-23T01:42:30.486Z,30.67
2022-10-23T01:45:07.426Z,29.23
2022-10-23T01:47:44.213Z,47.70
2022-10-23T01:50:15.685Z,30.38
2022-10-23T01:52:46.290Z,38.15
2022-10-23T01:55:15.429Z,26.75
2022-10-23T01:57:45.960Z,31.92
2022-10-23T02:00:16.820Z,30.05
2022-10-23T02:02:56.395Z,31.20
2022-10-23T02:05:33.623Z,33.85
2022-10-23T02:08:03.892Z,31.40
2022-10-23T02:11:07.476Z,26.35
2022-10-23T02:14:02.113Z,40.88
2022-10-23T02:16:58.029Z,33.55
2022-10-23T02:19:49.244Z,22.48
2022-10-23T02:22:21.816Z,26.92
2022-10-23T02:24:54.566Z,25.58
2022-10-23T02:27:45.242Z,30.88
2022-10-23T02:30:18.898Z,33.58
2022-10-23T02:32:55.047Z,35.30
2022-10-23T02:38:01.363Z,27.08
2022-10-23T02:40:42.233Z,32.03
2022-10-23T02:43:30.097Z,24.73
2022-10-23T02:46:30.770Z,43.15
2022-10-23T02:52:23.942Z,19.77
2022-10-23T02:54:57.795Z,22.98
2022-10-23T02:57:33.851Z,34.88
2022-10-23T03:00:03.759Z,27.58
2022-10-23T03:02:44.543Z,25.67
2022-10-23T03:05:20.439Z,34.28
2022-10-23T03:07:49.802Z,32.92
2022-10-23T03:10:18.990Z,27.70
2022-10-23T03:12:49.008Z,31.88
2022-10-23T03:15:17.862Z,27.70
2022-10-23T03:17:45.736Z,26.98
2022-10-23T03:22:45.429Z,33.45
2022-10-23T03:25:13.676Z,29.67
2022-10-23T03:27:41.368Z,34.33
2022-10-23T03:30:11.997Z,36.40
2022-10-23T03:32:41.652Z,22.73
2022-10-23T03:35:09.659Z,24.67
2022-10-23T03:37:37.462Z,35.25
2022-10-23T03:40:05.707Z,23.60
2022-10-23T03:45:03.892Z,23.15
2022-10-23T03:47:32.864Z,25.77
2022-10-23T03:50:01.898Z,27.17
2022-10-23T03:52:30.753Z,19.02
2022-10-23T03:54:58.561Z,19.30
2022-10-23T03:57:26.811Z,15.93
2022-10-23T03:59:54.543Z,15.13
2022-10-23T04:02:22.588Z,15.77
2022-10-23T04:04:53.109Z,18.63
2022-10-23T04:07:21.078Z,18.70
2022-10-23T04:09:50.153Z,18.88
2022-10-23T04:12:18.132Z,17.50
2022-10-23T04:14:45.798Z,14.70
2022-10-23T04:17:13.688Z,12.30
2022-10-23T04:19:43.575Z,13.98
2022-10-23T04:22:11.978Z,11.32
2022-10-23T04:24:45.472Z,10.93
2022-10-23T04:27:18.676Z,17.60
2022-10-23T04:29:46.639Z,17.00
2022-10-23T04:32:14.638Z,18.77
2022-10-23T04:37:12.364Z,13.30
2022-10-23T04:39:40.020Z,17.30
2022-10-23T04:42:07.626Z,12.68
2022-10-23T04:44:36.335Z,14.75
2022-10-23T04:47:04.287Z,18.90
2022-10-23T04:49:33.311Z,12.55
2022-10-23T04:52:13.081Z,12.52
2022-10-23T04:54:49.958Z,11.10
2022-10-23T04:57:47.187Z,11.75
2022-10-23T05:00:16.486Z,10.35
2022-10-23T05:02:54.083Z,11.95
2022-10-23T05:05:22.901Z,12.55
2022-10-23T05:08:02.485Z,11.67
2022-10-23T05:10:50.828Z,14.95
2022-10-23T05:13:20.224Z,15.70
2022-10-23T05:15:49.709Z,13.40
2022-10-23T05:18:26.382Z,13.68
2022-10-23T05:21:04.232Z,12.98
2022-10-23T05:23:34.003Z,13.23
2022-10-23T05:26:04.776Z,13.95
2022-10-23T05:28:33.470Z,12.77
2022-10-23T05:31:04.572Z,9.95
2022-10-23T05:33:37.060Z,12.05
2022-10-23T05:36:06.675Z,9.88
2022-10-23T05:38:36.572Z,10.68
2022-10-23T05:41:11.660Z,8.63
2022-10-23T05:43:39.408Z,12.27
2022-10-23T05:46:29.807Z,10.68
2022-10-23T05:49:26.844Z,11.23
2022-10-23T05:52:13.484Z,10.57
2022-10-23T05:55:01.646Z,10.00
2022-10-23T05:58:03.407Z,9.50
2022-10-23T06:00:57.291Z,10.48
2022-10-23T06:03:52.297Z,13.38
2022-10-23T06:06:23.684Z,13.20
2022-10-23T06:08:51.863Z,10.90
2022-10-23T06:11:22.829Z,9.65
2022-10-23T06:14:01.092Z,11.18
2022-10-23T06:16:29.617Z,9.70
2022-10-23T06:18:58.717Z,9.57
2022-10-23T06:21:26.558Z,11.32
2022-10-23T06:23:56.689Z,10.60
2022-10-23T06:26:33.609Z,12.23
2022-10-23T06:29:08.057Z,20.30
2022-10-23T06:31:37.026Z,15.55
2022-10-23T06:34:06.293Z,13.65
2022-10-23T06:36:34.291Z,15.68
2022-10-23T06:39:24.398Z,13.82
2022-10-23T06:42:26.586Z,18.13
2022-10-23T06:44:58.038Z,18.85
2022-10-23T06:47:52.120Z,19.55
2022-10-23T06:50:39.760Z,19.85
2022-10-23T06:53:13.069Z,16.33
2022-10-23T06:55:50.057Z,17.13
2022-10-23T06:58:21.261Z,13.70
2022-10-23T07:01:13.858Z,14.02
2022-10-23T07:03:43.926Z,14.63
2022-10-23T07:06:13.467Z,20.77
2022-10-23T07:08:41.645Z,18.67
2022-10-23T07:11:29.312Z,17.75
2022-10-23T07:13:58.818Z,19.58
2022-10-23T07:16:27.495Z,22.15
2022-10-23T07:18:59.938Z,20.65
2022-10-23T07:21:30.065Z,15.70
2022-10-23T07:24:10.296Z,19.05
2022-10-23T07:26:41.720Z,23.38
2022-10-23T07:29:10.490Z,20.25
2022-10-23T07:31:38.605Z,18.60
2022-10-23T07:34:25.540Z,22.25
2022-10-23T07:37:12.094Z,18.65
2022-10-23T07:39:40.084Z,18.33
2022-10-23T07:42:09.394Z,21.10
2022-10-23T07:44:37.211Z,19.13
2022-10-23T07:47:05.479Z,24.35
2022-10-23T07:49:33.615Z,19.70
2022-10-23T07:54:40.134Z,18.02
2022-10-23T07:57:20.958Z,20.20
2022-10-23T08:00:11.728Z,20.00
2022-10-23T08:02:42.765Z,18.67
2022-10-23T08:05:12.883Z,21.23
2022-10-23T08:07:52.944Z,20.00
2022-10-23T08:10:21.339Z,20.17
2022-10-23T08:12:49.312Z,19.02
2022-10-23T08:15:19.978Z,22.02
2022-10-23T08:17:54.650Z,19.63
2022-10-23T08:20:41.756Z,17.08
2022-10-23T08:23:10.554Z,17.25
2022-10-23T08:25:40.648Z,18.23
2022-10-23T08:28:10.495Z,24.83
2022-10-23T08:30:50.840Z,17.90
2022-10-23T08:33:19.655Z,21.50
2022-10-23T08:35:48.087Z,19.15
2022-10-23T08:38:23.842Z,19.52
2022-10-23T08:40:54.109Z,15.85
2022-10-23T08:43:44.057Z,15.32
2022-10-23T08:46:45.128Z,17.00
2022-10-23T08:49:41.141Z,17.33
2022-10-23T08:52:22.344Z,17.52
2022-10-23T08:54:58.433Z,18.05
2022-10-23T08:57:37.774Z,17.55
2022-10-23T09:00:17.157Z,17.00
2022-10-23T09:02:53.836Z,15.73
2022-10-23T09:05:32.726Z,18.02
2022-10-23T09:08:07.094Z,18.02
2022-10-23T09:10:51.745Z,19.52
2022-10-23T09:13:49.319Z,20.27
2022-10-23T09:16:27.302Z,18.25
2022-10-23T09:18:56.848Z,19.75
2022-10-23T09:21:31.335Z,21.83
2022-10-23T09:23:59.749Z,20.67
2022-10-23T09:26:27.907Z,21.70
2022-10-23T09:29:15.546Z,17.60
2022-10-23T09:31:55.935Z,19.02
2022-10-23T09:37:00.178Z,16.52
2022-10-23T09:39:35.705Z,16.98
2022-10-23T09:42:21.414Z,17.48
2022-10-23T09:44:52.143Z,16.90
2022-10-23T09:47:24.763Z,18.30
2022-10-23T09:49:57.577Z,18.45
2022-10-23T09:52:35.241Z,16.98
2022-10-23T09:55:18.947Z,16.20
2022-10-23T09:57:48.054Z,17.50
2022-10-23T10:00:25.936Z,16.20
2022-10-23T10:03:06.581Z,16.67
2022-10-23T10:06:03.921Z,16.42
2022-10-23T10:08:46.800Z,17.75
2022-10-23T10:11:39.750Z,16.38
2022-10-23T10:14:10.624Z,17.20
2022-10-23T10:16:51.146Z,15.00
2022-10-23T10:19:53.516Z,19.00
2022-10-23T10:22:27.541Z,21.77
2022-10-23T10:25:32.554Z,16.38
2022-10-23T10:28:29.771Z,12.98
2022-10-23T10:31:15.875Z,15.82
2022-10-23T10:34:25.474Z,16.48
2022-10-23T10:37:02.771Z,13.38
2022-10-23T10:39:38.595Z,16.20
2022-10-23T10:42:25.558Z,14.70
2022-10-23T10:45:19.916Z,16.48
2022-10-23T10:48:19.088Z,14.65
2022-10-23T10:51:33.301Z,13.88
2022-10-23T10:54:19.058Z,13.90
2022-10-23T10:56:48.888Z,15.73
2022-10-23T10:59:27.712Z,14.75
2022-10-23T11:02:17.314Z,13.70
2022-10-23T11:05:11.701Z,13.57
2022-10-23T11:07:53.107Z,14.75
2022-10-23T11:10:21.332Z,12.27
2022-10-23T11:12:50.519Z,15.65
2022-10-23T11:15:45.644Z,17.98
2022-10-23T11:18:25.676Z,15.50
2022-10-23T11:21:08.482Z,13.00
2022-10-23T11:24:01.151Z,15.57
2022-10-23T11:26:52.541Z,18.70
2022-10-23T11:29:41.172Z,25.52
2022-10-23T11:32:30.574Z,13.95
2022-10-23T11:35:23.066Z,13.10
2022-10-23T11:38:18.561Z,12.75
2022-10-23T11:40:56.659Z,10.90
2022-10-23T11:43:46.702Z,12.25
2022-10-23T11:46:29.835Z,11.98
2022-10-23T11:48:58.701Z,11.57
2022-10-23T11:51:38.171Z,12.13
2022-10-23T11:54:27.452Z,9.63
2022-10-23T11:57:09.913Z,10.70
2022-10-23T11:59:50.645Z,9.73
2022-10-23T12:02:32.522Z,15.20
2022-10-23T12:05:10.368Z,11.13
2022-10-23T12:07:40.517Z,10.50
2022-10-23T12:10:22.915Z,10.75
2022-10-23T12:13:01.139Z,8.75
2022-10-23T12:15:28.883Z,10.00
2022-10-23T12:18:15.198Z,10.68
2022-10-23T12:20:43.081Z,10.98
2022-10-23T12:23:26.910Z,11.70
2022-10-23T12:26:23.961Z,11.27
2022-10-23T12:28:54.774Z,10.57
2022-10-23T12:31:48.120Z,9.45
2022-10-23T12:34:34.826Z,10.10
2022-10-23T12:37:27.042Z,8.45
2022-10-23T12:39:59.625Z,10.63
2022-10-23T12:42:29.929Z,11.55
2022-10-23T12:45:21.851Z,9.55
2022-10-23T12:47:50.989Z,9.70
2022-10-23T12:50:31.631Z,9.52
2022-10-23T12:53:02.643Z,10.40
2022-10-23T12:55:53.548Z,12.02
2022-10-23T12:58:22.629Z,13.35
2022-10-23T13:00:55.037Z,14.38
2022-10-23T13:03:25.443Z,12.70
2022-10-23T13:05:55.762Z,14.55
2022-10-23T13:08:24.489Z,15.68
2022-10-23T13:11:18.583Z,17.63
2022-10-23T13:13:49.910Z,15.93
2022-10-23T13:16:28.374Z,20.20
2022-10-23T13:18:56.253Z,29.48
2022-10-23T13:21:26.872Z,22.35
2022-10-23T13:23:55.867Z,19.38
2022-10-23T13:26:38.139Z,1999.90
2022-10-23T13:29:21.252Z,1999.90
2022-10-23T13:31:50.403Z,1999.90
2022-10-23T13:34:38.624Z,1999.90
2022-10-23T13:37:25.138Z,1999.90
2022-10-23T13:40:02.224Z,1999.90
2022-10-23T13:42:30.137Z,1999.90
2022-10-23T13:44:58.338Z,1999.90
2022-10-23T13:47:26.730Z,1999.90
2022-10-23T13:49:54.509Z,1999.90
2022-10-23T13:52:23.998Z,1999.90
2022-10-23T13:54:51.782Z,1999.90
2022-10-23T13:57:19.609Z,1999.90
2022-10-23T13:59:47.769Z,1999.90
2022-10-23T14:02:24.087Z,1999.90
2022-10-23T14:04:52.193Z,1999.90
2022-10-23T14:07:19.971Z,27.70
2022-10-23T14:09:50.447Z,12.25
2022-10-23T14:12:18.851Z,18.80
2022-10-23T14:14:52.464Z,16.13
2022-10-23T14:17:21.535Z,15.77
2022-10-23T14:19:51.655Z,10.68
2022-10-23T14:22:20.282Z,11.63
2022-10-23T14:24:47.971Z,12.30
2022-10-23T14:27:16.182Z,12.30
2022-10-23T14:29:44.380Z,14.88
2022-10-23T14:32:12.817Z,11.43
2022-10-23T14:34:43.699Z,10.85
2022-10-23T14:37:12.018Z,11.55
2022-10-23T14:39:40.255Z,87.97
2022-10-23T14:42:08.673Z,18.40
2022-10-23T14:47:05.305Z,11.40
2022-10-23T14:49:36.596Z,14.65
2022-10-23T14:52:05.683Z,10.27
2022-10-23T14:54:35.509Z,19.23
2022-10-23T14:57:04.140Z,13.80
2022-10-23T14:59:32.740Z,10.15
2022-10-23T15:02:01.350Z,9.93
2022-10-23T15:04:29.676Z,11.15
2022-10-23T15:06:57.665Z,9.93
2022-10-23T15:09:25.956Z,11.73
2022-10-23T15:11:54.114Z,12.60
2022-10-23T15:14:22.446Z,17.05
2022-10-23T15:16:50.443Z,9.18
2022-10-23T15:19:19.069Z,14.60
2022-10-23T15:21:49.247Z,10.45
2022-10-23T15:24:18.903Z,11.73
2022-10-23T15:26:47.743Z,9.18
2022-10-23T15:29:16.431Z,10.93
2022-10-23T15:31:48.200Z,8.70
2022-10-23T15:34:21.807Z,8.40
2022-10-23T15:36:52.133Z,9.88
2022-10-23T15:39:34.107Z,10.68
2022-10-23T15:42:04.508Z,8.95
2022-10-23T15:47:01.705Z,12.90
2022-10-23T15:49:30.362Z,28.33
2022-10-23T15:51:58.694Z,20.25
2022-10-23T15:54:29.308Z,22.35
2022-10-23T15:56:59.964Z,17.27
2022-10-23T15:59:28.902Z,12.50
2022-10-23T16:01:57.305Z,16.05
2022-10-23T16:04:25.684Z,15.80
2022-10-23T16:06:53.867Z,11.38
2022-10-23T16:09:22.126Z,13.75
2022-10-23T16:11:49.955Z,13.27
2022-10-23T16:14:18.402Z,16.10
2022-10-23T16:16:46.449Z,13.63
2022-10-23T16:19:14.760Z,13.35
2022-10-23T16:21:43.020Z,15.02
2022-10-23T16:24:11.225Z,16.65
2022-10-23T16:26:39.374Z,8.98
2022-10-23T16:29:09.152Z,9.60
2022-10-23T16:31:37.781Z,17.25
2022-10-23T16:34:06.429Z,26.20
2022-10-23T16:36:35.038Z,31.75
2022-10-23T16:39:23.823Z,43.88
2022-10-23T16:42:10.354Z,25.80
2022-10-23T16:45:14.386Z,19.48
2022-10-23T16:47:42.476Z,12.85
2022-10-23T16:50:10.270Z,13.35
2022-10-23T16:52:38.969Z,64.03
2022-10-23T16:55:07.822Z,20.58
2022-10-23T16:57:36.622Z,46.53
2022-10-23T17:00:06.903Z,41.30
2022-10-23T17:02:34.942Z,45.50
2022-10-23T17:05:03.432Z,55.60
2022-10-23T17:07:32.689Z,65.47
2022-10-23T17:10:00.370Z,43.47
2022-10-23T17:12:28.900Z,58.28
2022-10-23T17:14:59.192Z,61.10
2022-10-23T17:17:27.412Z,70.03
2022-10-23T17:19:55.902Z,66.65
2022-10-23T17:22:24.183Z,94.40
2022-10-23T17:24:54.190Z,76.35
2022-10-23T17:27:22.640Z,81.07
2022-10-23T17:29:50.604Z,104.72
2022-10-23T17:32:18.844Z,115.28
2022-10-23T17:34:48.390Z,73.55
2022-10-23T17:37:17.460Z,180.60
2022-10-23T17:39:45.422Z,183.93
2022-10-23T17:42:13.678Z,153.27
2022-10-23T17:44:41.956Z,177.40
2022-10-23T17:47:09.968Z,135.48
2022-10-23T17:49:42.786Z,147.07
2022-10-23T17:52:15.236Z,172.02
2022-10-23T17:54:43.341Z,188.80
2022-10-23T17:57:11.429Z,178.43
2022-10-23T17:59:40.472Z,200.25
2022-10-23T18:02:11.894Z,161.25
2022-10-23T18:04:40.342Z,155.13
2022-10-23T18:07:08.200Z,138.80
2022-10-23T18:09:37.911Z,122.95
2022-10-23T18:12:06.368Z,134.70
2022-10-23T18:14:37.321Z,124.00
2022-10-23T18:17:05.881Z,129.07
2022-10-23T18:19:33.735Z,113.30
2022-10-23T18:22:01.449Z,107.53
2022-10-23T18:24:30.134Z,118.88
2022-10-23T18:26:57.976Z,120.80
2022-10-23T18:29:26.106Z,121.07
2022-10-23T18:31:54.421Z,102.65
2022-10-23T18:34:24.402Z,98.72
2022-10-23T18:36:55.811Z,105.03
2022-10-23T18:39:25.343Z,90.22
2022-10-23T18:41:56.766Z,61.03
2022-10-23T18:44:28.004Z,86.45
2022-10-23T18:46:57.754Z,74.18
2022-10-23T18:49:26.033Z,89.43
2022-10-23T18:51:53.966Z,110.80
2022-10-23T18:54:22.365Z,107.55
2022-10-23T18:56:50.829Z,102.38
2022-10-23T18:59:20.886Z,86.88
2022-10-23T19:01:50.285Z,75.45
2022-10-23T19:04:18.878Z,85.43
2022-10-23T19:06:48.449Z,57.15
2022-10-23T19:09:16.746Z,51.70
2022-10-23T19:11:46.122Z,46.28
2022-10-23T19:14:14.473Z,53.42
2022-10-23T19:16:53.752Z,92.47
2022-10-23T19:19:28.191Z,90.88
2022-10-23T19:21:56.813Z,91.95
2022-10-23T19:24:51.412Z,96.35
2022-10-23T19:27:20.439Z,89.90
2022-10-23T19:29:52.202Z,74.05
2022-10-23T19:32:22.642Z,57.85
2022-10-23T19:34:50.317Z,56.97
2022-10-23T19:37:18.364Z,52.25
2022-10-23T19:39:46.483Z,61.40
2022-10-23T19:42:14.582Z,54.92
2022-10-23T19:44:42.300Z,57.45
2022-10-23T19:47:10.094Z,54.33
2022-10-23T19:49:39.008Z,72.15
2022-10-23T19:52:07.464Z,80.25
2022-10-23T19:54:35.290Z,77.47
2022-10-23T19:57:04.088Z,71.13
2022-10-23T19:59:31.959Z,68.93
2022-10-23T20:01:59.967Z,57.78
2022-10-23T20:04:30.127Z,69.13
2022-10-23T20:06:58.660Z,240.05
2022-10-23T20:09:26.480Z,137.13
2022-10-23T20:11:54.547Z,110.30
2022-10-23T20:14:22.301Z,91.32
2022-10-23T20:16:53.525Z,77.40
2022-10-23T20:19:24.524Z,102.30
2022-10-23T20:21:52.152Z,100.82
2022-10-23T20:24:21.150Z,64.05
2022-10-23T20:26:52.022Z,46.22
2022-10-23T20:29:21.022Z,63.38
2022-10-23T20:31:48.936Z,78.85
2022-10-23T20:34:16.667Z,70.47
2022-10-23T20:36:47.557Z,56.65
2022-10-23T20:39:22.170Z,52.58
2022-10-23T20:41:50.078Z,51.15
2022-10-23T20:44:19.096Z,49.35
2022-10-23T20:46:47.255Z,51.08
2022-10-23T20:49:15.960Z,47.85
2022-10-23T20:51:43.949Z,67.90
2022-10-23T20:54:12.409Z,54.45
2022-10-23T20:56:41.671Z,54.85
2022-10-23T20:59:18.233Z,52.08
2022-10-23T21:01:53.322Z,53.85
2022-10-23T21:04:24.539Z,48.40
2022-10-23T21:07:11.186Z,47.47
2022-10-23T21:09:40.234Z,45.35
2022-10-23T21:12:08.483Z,49.33
2022-10-23T21:14:36.533Z,49.75
2022-10-23T21:17:04.860Z,68.20
2022-10-23T21:19:32.855Z,53.85
2022-10-23T21:22:00.572Z,52.22
2022-10-23T21:24:28.381Z,49.20
2022-10-23T21:26:56.304Z,43.20
2022-10-23T21:29:24.073Z,52.35
2022-10-23T21:31:57.234Z,47.85
2022-10-23T21:34:26.369Z,43.60
2022-10-23T21:37:11.840Z,40.75
2022-10-23T21:39:41.519Z,71.50
2022-10-23T21:42:09.719Z,46.95
2022-10-23T21:44:38.547Z,54.15
2022-10-23T21:47:06.281Z,45.95
2022-10-23T21:49:34.214Z,48.65
2022-10-23T21:52:02.004Z,40.55
2022-10-23T21:54:29.872Z,40.70
2022-10-23T21:56:59.115Z,59.08
2022-10-23T21:59:30.131Z,62.67
2022-10-23T22:01:59.551Z,53.85
2022-10-23T22:04:27.523Z,49.35
2022-10-23T22:06:55.584Z,54.60
2022-10-23T22:09:23.674Z,47.45
2022-10-23T22:11:55.657Z,49.30
2022-10-23T22:14:24.466Z,43.55
2022-10-23T22:16:52.695Z,46.80
2022-10-23T22:19:22.423Z,44.58
2022-10-23T22:21:51.002Z,40.17
2022-10-23T22:24:19.373Z,47.05
2022-10-23T22:26:50.442Z,37.85
2022-10-23T22:29:21.922Z,46.88
2022-10-23T22:31:50.290Z,37.88
2022-10-23T22:34:26.817Z,45.97
2022-10-23T22:37:02.041Z,47.55
2022-10-23T22:39:29.801Z,33.28
2022-10-23T22:41:57.874Z,33.75
2022-10-23T22:44:25.542Z,38.05
2022-10-23T22:46:53.761Z,36.60
2022-10-23T22:49:21.478Z,34.05
2022-10-23T22:51:49.246Z,33.45
2022-10-23T22:54:17.340Z,36.33
2022-10-23T22:56:46.158Z,39.28
2022-10-23T22:59:14.844Z,32.05
2022-10-23T23:01:46.351Z,34.38
2022-10-23T23:07:12.443Z,26.15
2022-10-23T23:09:43.042Z,31.17
2022-10-23T23:12:14.177Z,23.92
2022-10-23T23:14:43.254Z,30.83
2022-10-23T23:17:11.903Z,26.08
2022-10-23T23:19:40.091Z,26.70
2022-10-23T23:22:08.715Z,29.75
2022-10-23T23:24:36.991Z,27.83
2022-10-23T23:27:04.828Z,41.92
2022-10-23T23:29:32.948Z,34.70
2022-10-23T23:32:00.695Z,36.65
2022-10-23T23:34:29.015Z,38.67
2022-10-23T23:36:57.059Z,31.48
2022-10-23T23:39:26.271Z,27.73
2022-10-23T23:41:53.769Z,31.05
2022-10-23T23:44:21.404Z,33.70
2022-10-23T23:46:48.977Z,33.25
2022-10-23T23:49:16.658Z,28.20
2022-10-23T23:51:44.280Z,28.02
2022-10-23T23:54:12.159Z,35.80
2022-10-23T23:56:39.843Z,28.95
2022-10-23T23:59:07.477Z,29.88
